createdAt,value
2018-10-17T00:00:20.848Z,33.20
2018-10-17T00:02:50.537Z,35.33
2018-10-17T00:05:20.044Z,34.56
2018-10-17T00:07:50.093Z,35.22
2018-10-17T00:10:19.861Z,34.74
2018-10-17T00:12:49.610Z,35.33
2018-10-17T00:15:19.257Z,34.51
2018-10-17T00:17:48.957Z,34.92
2018-10-17T00:20:18.633Z,34.20
2018-10-17T00:22:48.326Z,34.86
2018-10-17T00:25:18.054Z,34.69
2018-10-17T00:27:47.721Z,35.20
2018-10-17T00:30:17.386Z,33.97
2018-10-17T00:32:47.069Z,34.15
2018-10-17T00:35:16.842Z,34.41
2018-10-17T00:37:46.492Z,35.18
2018-10-17T00:40:16.478Z,34.62
2018-10-17T00:42:46.443Z,35.25
2018-10-17T00:45:16.145Z,35.13
2018-10-17T00:47:45.798Z,35.12
2018-10-17T00:50:15.643Z,35.66
2018-10-17T00:52:45.418Z,35.42
2018-10-17T00:55:15.432Z,34.75
2018-10-17T00:57:45.075Z,35.55
2018-10-17T01:00:15.042Z,36.21
2018-10-17T01:02:45.106Z,35.24
2018-10-17T01:05:14.840Z,35.44
2018-10-17T01:07:44.417Z,35.00
2018-10-17T01:10:14.149Z,35.25
2018-10-17T01:12:43.734Z,36.26
2018-10-17T01:15:13.401Z,35.86
2018-10-17T01:17:43.214Z,35.71
2018-10-17T01:20:12.853Z,35.72
2018-10-17T01:22:42.525Z,35.88
2018-10-17T01:25:12.256Z,36.77
2018-10-17T01:27:41.988Z,36.50
2018-10-17T01:30:11.649Z,36.36
2018-10-17T01:32:41.324Z,36.72
2018-10-17T01:35:11.062Z,36.79
2018-10-17T01:37:40.684Z,37.00
2018-10-17T01:40:10.381Z,36.09
2018-10-17T01:42:40.640Z,37.13
2018-10-17T01:45:10.569Z,36.68
2018-10-17T01:47:40.189Z,36.41
2018-10-17T01:50:09.989Z,36.69
2018-10-17T01:52:40.276Z,36.25
2018-10-17T01:55:10.028Z,36.43
2018-10-17T01:57:39.702Z,36.62
2018-10-17T02:00:09.388Z,37.06
2018-10-17T02:02:39.017Z,37.43
2018-10-17T02:05:08.840Z,37.72
2018-10-17T02:07:38.603Z,36.55
2018-10-17T02:10:08.378Z,36.44
2018-10-17T02:12:38.018Z,36.74
2018-10-17T02:15:07.773Z,37.24
2018-10-17T02:17:37.465Z,37.36
2018-10-17T02:20:07.006Z,37.91
2018-10-17T02:22:37.097Z,36.75
2018-10-17T02:25:07.519Z,37.86
2018-10-17T02:27:37.695Z,38.08
2018-10-17T02:30:07.818Z,37.62
2018-10-17T02:32:37.414Z,36.95
2018-10-17T02:35:12.385Z,38.23
2018-10-17T02:37:42.103Z,37.65
2018-10-17T02:40:12.025Z,37.68
2018-10-17T02:42:41.846Z,37.33
2018-10-17T02:45:13.316Z,37.17
2018-10-17T02:47:42.946Z,37.87
2018-10-17T02:50:13.252Z,38.01
2018-10-17T02:52:43.441Z,37.99
2018-10-17T02:55:13.196Z,37.65
2018-10-17T02:57:42.902Z,38.17
2018-10-17T03:00:12.646Z,38.37
2018-10-17T03:02:42.390Z,38.33
2018-10-17T03:05:12.269Z,38.52
2018-10-17T03:07:41.814Z,39.34
2018-10-17T03:10:11.546Z,39.05
2018-10-17T03:12:41.418Z,39.57
2018-10-17T03:15:11.122Z,37.84
2018-10-17T03:17:40.745Z,38.88
2018-10-17T03:20:11.050Z,37.96
2018-10-17T03:22:40.838Z,38.33
2018-10-17T03:25:10.901Z,37.62
2018-10-17T03:27:40.579Z,38.56
2018-10-17T03:30:10.586Z,39.08
2018-10-17T03:32:40.697Z,38.25
2018-10-17T03:35:10.418Z,37.68
2018-10-17T03:37:40.114Z,38.08
2018-10-17T03:40:10.231Z,38.62
2018-10-17T03:42:40.462Z,38.96
2018-10-17T03:45:10.175Z,38.24
2018-10-17T03:47:39.778Z,37.60
2018-10-17T03:50:09.496Z,39.43
2018-10-17T03:52:39.185Z,39.08
2018-10-17T03:55:09.137Z,38.18
2018-10-17T03:57:38.662Z,39.34
2018-10-17T04:00:08.750Z,38.19
2018-10-17T04:02:38.758Z,39.49
2018-10-17T04:05:08.754Z,38.72
2018-10-17T04:07:38.310Z,39.24
2018-10-17T04:10:08.063Z,39.68
2018-10-17T04:12:38.114Z,39.07
2018-10-17T04:15:07.722Z,38.73
2018-10-17T04:17:37.408Z,38.89
2018-10-17T04:20:07.357Z,39.61
2018-10-17T04:22:37.187Z,38.88
2018-10-17T04:25:07.218Z,39.46
2018-10-17T04:27:36.954Z,39.76
2018-10-17T04:30:08.338Z,39.92
2018-10-17T04:32:38.107Z,39.73
2018-10-17T04:35:07.885Z,39.68
2018-10-17T04:37:37.530Z,39.97
2018-10-17T04:40:07.369Z,39.13
2018-10-17T04:42:37.006Z,40.05
2018-10-17T04:45:08.593Z,39.22
2018-10-17T04:47:38.958Z,39.88
2018-10-17T04:50:09.970Z,40.46
2018-10-17T04:52:40.151Z,39.92
2018-10-17T04:55:11.143Z,39.56
2018-10-17T04:57:41.066Z,40.90
2018-10-17T05:00:12.890Z,40.19
2018-10-17T05:02:43.685Z,40.48
2018-10-17T05:05:13.947Z,39.98
2018-10-17T05:07:43.595Z,40.23
2018-10-17T05:10:13.449Z,39.56
2018-10-17T05:12:43.152Z,40.46
2018-10-17T05:15:12.904Z,39.88
2018-10-17T05:17:42.579Z,41.31
2018-10-17T05:20:12.258Z,40.68
2018-10-17T05:22:42.065Z,41.07
2018-10-17T05:25:12.195Z,40.90
2018-10-17T05:27:41.825Z,41.23
2018-10-17T05:30:11.538Z,40.83
2018-10-17T05:32:41.206Z,40.22
2018-10-17T05:35:10.969Z,40.52
2018-10-17T05:37:41.120Z,40.56
2018-10-17T05:40:10.744Z,40.84
2018-10-17T05:42:40.486Z,40.38
2018-10-17T05:45:10.235Z,40.92
2018-10-17T05:47:40.006Z,40.08
2018-10-17T05:50:10.130Z,40.51
2018-10-17T05:52:39.834Z,40.92
2018-10-17T05:55:09.515Z,40.30
2018-10-17T05:57:39.173Z,40.65
2018-10-17T06:00:09.355Z,41.22
2018-10-17T06:02:39.437Z,40.49
2018-10-17T06:05:10.497Z,41.18
2018-10-17T06:07:40.094Z,40.04
2018-10-17T06:10:10.441Z,40.60
2018-10-17T06:12:40.202Z,40.94
2018-10-17T06:15:10.034Z,40.50
2018-10-17T06:17:39.867Z,41.21
2018-10-17T06:20:09.594Z,40.70
2018-10-17T06:22:39.266Z,41.15
2018-10-17T06:25:09.590Z,41.45
2018-10-17T06:27:39.190Z,40.77
2018-10-17T06:30:10.114Z,41.06
2018-10-17T06:32:40.299Z,40.64
2018-10-17T06:35:10.305Z,41.39
2018-10-17T06:37:39.898Z,40.56
2018-10-17T06:40:10.449Z,41.11
2018-10-17T06:42:40.183Z,41.12
2018-10-17T06:45:09.849Z,41.29
2018-10-17T06:47:39.626Z,41.57
2018-10-17T06:50:09.874Z,41.20
2018-10-17T06:52:39.683Z,41.78
2018-10-17T06:55:09.518Z,41.33
2018-10-17T06:57:39.285Z,40.81
2018-10-17T07:00:09.855Z,41.65
2018-10-17T07:02:39.823Z,41.62
2018-10-17T07:05:10.589Z,40.97
2018-10-17T07:07:40.578Z,41.43
2018-10-17T07:10:10.297Z,41.19
2018-10-17T07:12:40.184Z,41.48
2018-10-17T07:15:09.964Z,40.65
2018-10-17T07:17:39.842Z,42.27
2018-10-17T07:20:10.189Z,41.69
2018-10-17T07:22:39.904Z,41.55
2018-10-17T07:25:09.590Z,41.07
2018-10-17T07:27:39.181Z,41.58
2018-10-17T07:30:09.643Z,42.05
2018-10-17T07:32:39.273Z,41.68
2018-10-17T07:35:09.870Z,41.92
2018-10-17T07:37:39.510Z,42.22
2018-10-17T07:40:09.153Z,42.35
2018-10-17T07:42:39.138Z,41.89
2018-10-17T07:45:09.002Z,41.92
2018-10-17T07:47:39.481Z,42.27
2018-10-17T07:50:09.997Z,41.91
2018-10-17T07:52:39.868Z,41.93
2018-10-17T07:55:11.523Z,42.09
2018-10-17T07:57:41.306Z,41.44
2018-10-17T08:00:13.013Z,42.60
2018-10-17T08:02:42.773Z,42.38
2018-10-17T08:05:12.502Z,41.71
2018-10-17T08:07:42.557Z,42.43
2018-10-17T08:10:12.511Z,42.35
2018-10-17T08:12:42.183Z,42.88
2018-10-17T08:15:12.274Z,42.90
2018-10-17T08:17:42.114Z,42.73
2018-10-17T08:20:12.837Z,41.96
2018-10-17T08:22:42.690Z,42.45
2018-10-17T08:25:13.543Z,42.57
2018-10-17T08:27:43.711Z,43.26
2018-10-17T08:30:13.591Z,41.98
2018-10-17T08:32:43.356Z,42.11
2018-10-17T08:35:13.105Z,41.84
2018-10-17T08:37:43.216Z,42.21
2018-10-17T08:40:12.459Z,43.06
2018-10-17T08:42:42.517Z,43.04
2018-10-17T08:45:12.257Z,42.57
2018-10-17T08:47:41.846Z,42.89
2018-10-17T08:50:11.590Z,43.21
2018-10-17T08:52:41.211Z,41.88
2018-10-17T08:55:10.910Z,42.03
2018-10-17T08:57:40.662Z,42.82
2018-10-17T09:00:10.614Z,42.51
2018-10-17T09:02:40.301Z,43.37
2018-10-17T09:05:09.941Z,43.65
2018-10-17T09:07:39.691Z,42.68
2018-10-17T09:10:09.390Z,43.03
2018-10-17T09:12:39.058Z,42.58
2018-10-17T09:15:09.594Z,42.64
2018-10-17T09:17:39.337Z,43.55
2018-10-17T09:20:09.856Z,43.45
2018-10-17T09:22:39.502Z,43.84
2018-10-17T09:25:09.345Z,42.31
2018-10-17T09:27:38.994Z,43.29
2018-10-17T09:30:10.178Z,42.64
2018-10-17T09:32:40.058Z,43.44
2018-10-17T09:35:11.022Z,43.84
2018-10-17T09:37:40.754Z,43.82
2018-10-17T09:40:11.514Z,42.88
2018-10-17T09:42:42.089Z,43.40
2018-10-17T09:45:12.100Z,43.40
2018-10-17T09:47:41.781Z,43.86
2018-10-17T09:50:11.691Z,44.05
2018-10-17T09:52:41.478Z,43.58
2018-10-17T09:55:11.165Z,42.97
2018-10-17T09:57:41.251Z,44.13
2018-10-17T10:00:16.039Z,43.68
2018-10-17T10:02:45.655Z,44.19
2018-10-17T10:05:15.556Z,43.45
2018-10-17T10:07:45.079Z,44.30
2018-10-17T10:10:15.071Z,43.71
2018-10-17T10:12:44.585Z,44.50
2018-10-17T10:15:14.289Z,43.99
2018-10-17T10:17:44.338Z,43.14
2018-10-17T10:20:14.013Z,43.90
2018-10-17T10:22:43.725Z,44.66
2018-10-17T10:25:13.468Z,43.58
2018-10-17T10:27:43.181Z,44.74
2018-10-17T10:30:12.924Z,43.87
2018-10-17T10:32:42.632Z,43.88
2018-10-17T10:35:12.369Z,44.46
2018-10-17T10:37:42.866Z,44.33
2018-10-17T10:40:12.965Z,45.02
2018-10-17T10:42:42.717Z,44.43
2018-10-17T10:45:12.586Z,44.00
2018-10-17T10:47:42.163Z,44.51
2018-10-17T10:50:11.939Z,44.16
2018-10-17T10:52:42.168Z,44.39
2018-10-17T10:55:11.918Z,43.97
2018-10-17T10:57:41.508Z,44.68
2018-10-17T11:00:11.296Z,45.14
2018-10-17T11:02:40.959Z,44.59
2018-10-17T11:05:10.967Z,45.00
2018-10-17T11:07:40.730Z,44.57
2018-10-17T11:10:10.657Z,45.44
2018-10-17T11:12:40.338Z,44.44
2018-10-17T11:15:10.709Z,44.60
2018-10-17T11:17:40.334Z,44.07
2018-10-17T11:20:09.978Z,44.72
2018-10-17T11:22:39.691Z,44.71
2018-10-17T11:25:09.749Z,44.08
2018-10-17T11:27:39.408Z,44.69
2018-10-17T11:30:11.284Z,45.24
2018-10-17T11:32:41.458Z,45.06
2018-10-17T11:35:11.574Z,44.29
2018-10-17T11:37:41.222Z,44.86
2018-10-17T11:40:10.887Z,45.12
2018-10-17T11:42:40.621Z,45.44
2018-10-17T11:45:10.363Z,44.91
2018-10-17T11:47:40.090Z,44.48
2018-10-17T11:50:10.707Z,44.32
2018-10-17T11:52:40.494Z,45.61
2018-10-17T11:55:10.495Z,44.86
2018-10-17T11:57:40.474Z,44.90
2018-10-17T12:00:12.012Z,45.57
2018-10-17T12:02:41.853Z,44.55
2018-10-17T12:05:13.704Z,44.58
2018-10-17T12:07:43.390Z,44.42
2018-10-17T12:10:13.171Z,44.86
2018-10-17T12:12:43.249Z,45.85
2018-10-17T12:15:14.196Z,45.23
2018-10-17T12:17:43.942Z,45.69
2018-10-17T12:20:14.858Z,45.51
2018-10-17T12:22:45.301Z,45.12
2018-10-17T12:25:15.326Z,44.72
2018-10-17T12:27:44.999Z,44.80
2018-10-17T12:30:15.654Z,45.97
2018-10-17T12:32:45.230Z,44.69
2018-10-17T12:35:15.187Z,45.59
2018-10-17T12:37:44.834Z,45.37
2018-10-17T12:40:14.584Z,44.97
2018-10-17T12:42:44.266Z,45.96
2018-10-17T12:45:14.012Z,45.68
2018-10-17T12:47:43.946Z,45.77
2018-10-17T12:50:13.872Z,46.38
2018-10-17T12:52:43.689Z,46.43
2018-10-17T12:55:13.449Z,46.33
2018-10-17T12:57:43.151Z,46.26
2018-10-17T13:00:13.053Z,45.57
2018-10-17T13:02:42.866Z,45.82
2018-10-17T13:05:12.663Z,46.41
2018-10-17T13:07:42.373Z,46.44
2018-10-17T13:10:12.563Z,45.78
2018-10-17T13:12:42.407Z,46.29
2018-10-17T13:15:14.258Z,45.95
2018-10-17T13:17:45.302Z,46.26
2018-10-17T13:20:15.307Z,45.63
2018-10-17T13:22:44.958Z,45.48
2018-10-17T13:25:15.093Z,46.36
2018-10-17T13:27:44.839Z,45.71
2018-10-17T13:30:14.666Z,46.68
2018-10-17T13:32:44.372Z,46.58
2018-10-17T13:35:14.122Z,46.01
2018-10-17T13:37:43.812Z,46.52
2018-10-17T13:40:13.663Z,46.49
2018-10-17T13:42:43.442Z,46.41
2018-10-17T13:45:13.122Z,46.90
2018-10-17T13:47:43.299Z,46.06
2018-10-17T13:50:13.052Z,46.00
2018-10-17T13:52:43.169Z,46.04
2018-10-17T13:55:12.936Z,45.91
2018-10-17T13:57:42.526Z,47.18
2018-10-17T14:00:13.379Z,46.07
2018-10-17T14:02:43.890Z,46.58
2018-10-17T14:05:13.677Z,46.75
2018-10-17T14:07:43.382Z,46.73
2018-10-17T14:10:13.126Z,47.42
2018-10-17T14:12:43.197Z,45.94
2018-10-17T14:15:12.893Z,47.56
2018-10-17T14:17:42.858Z,47.42
2018-10-17T14:20:12.622Z,47.35
2018-10-17T14:22:42.450Z,46.97
2018-10-17T14:25:12.307Z,46.35
2018-10-17T14:27:42.458Z,47.13
2018-10-17T14:30:13.593Z,47.08
2018-10-17T14:32:43.553Z,46.47
2018-10-17T14:35:13.505Z,46.75
2018-10-17T14:37:43.409Z,47.26
2018-10-17T14:40:13.362Z,46.82
2018-10-17T14:42:43.166Z,47.00
2018-10-17T14:45:13.152Z,47.74
2018-10-17T14:47:43.072Z,46.62
2018-10-17T14:50:12.803Z,47.37
2018-10-17T14:52:42.634Z,46.83
2018-10-17T14:55:12.287Z,47.48
2018-10-17T14:57:42.334Z,47.59
2018-10-17T15:00:14.582Z,47.92
2018-10-17T15:02:44.754Z,48.18
2018-10-17T15:05:14.644Z,46.72
2018-10-17T15:07:44.450Z,47.19
2018-10-17T15:10:15.310Z,47.05
2018-10-17T15:12:45.014Z,47.15
2018-10-17T15:15:14.857Z,46.83
2018-10-17T15:17:44.753Z,47.12
2018-10-17T15:20:15.282Z,46.96
2018-10-17T15:22:45.342Z,47.99
2018-10-17T15:25:14.910Z,46.96
2018-10-17T15:27:44.582Z,46.53
2018-10-17T15:30:14.429Z,47.63
2018-10-17T15:32:43.998Z,46.96
2018-10-17T15:35:13.702Z,48.32
2018-10-17T15:37:43.445Z,48.09
2018-10-17T15:40:13.054Z,47.72
2018-10-17T15:42:42.798Z,48.19
2018-10-17T16:14:49.602Z,47.04
2018-10-17T16:17:19.323Z,47.67
2018-10-17T16:19:48.994Z,48.16
2018-10-17T16:22:18.667Z,47.88
2018-10-17T16:24:48.445Z,47.99
2018-10-17T16:27:18.147Z,47.95
2018-10-17T16:29:48.197Z,48.26
2018-10-17T16:32:17.981Z,47.23
2018-10-17T16:34:47.481Z,47.23
2018-10-17T16:37:17.120Z,47.47
2018-10-17T16:39:46.807Z,47.75
2018-10-17T16:42:16.658Z,48.01
2018-10-17T16:44:46.226Z,47.87
2018-10-17T16:47:15.897Z,47.11
2018-10-17T16:49:45.678Z,48.53
2018-10-17T16:52:15.424Z,47.37
2018-10-17T16:54:45.294Z,48.36
2018-10-17T16:57:15.145Z,48.29
2018-10-17T16:59:44.893Z,48.86
2018-10-17T17:02:14.782Z,48.58
2018-10-17T17:04:44.441Z,48.37
2018-10-17T17:07:14.209Z,48.20
2018-10-17T17:09:44.320Z,48.00
2018-10-17T17:12:17.688Z,48.53
2018-10-17T17:14:48.738Z,48.82
2018-10-17T17:17:18.662Z,48.93
2018-10-17T17:19:48.458Z,47.85
2018-10-17T17:22:18.214Z,48.45
2018-10-17T17:24:47.882Z,48.10
2018-10-17T17:27:18.666Z,47.08
2018-10-17T17:29:48.951Z,48.61
2018-10-17T17:32:19.081Z,47.44
2018-10-17T17:34:49.553Z,47.49
2018-10-17T17:37:19.697Z,47.76
2018-10-17T17:39:50.439Z,46.61
2018-10-17T17:42:20.525Z,47.63
2018-10-17T17:44:51.044Z,45.90
2018-10-17T17:47:21.030Z,46.30
2018-10-17T17:49:51.524Z,45.87
2018-10-17T17:52:21.537Z,45.44
2018-10-17T17:54:51.394Z,44.90
2018-10-17T17:57:21.809Z,44.62
2018-10-17T17:59:58.274Z,44.02
2018-10-17T18:02:28.365Z,44.55
2018-10-17T18:04:59.490Z,44.43
2018-10-17T18:07:29.414Z,43.47
2018-10-17T18:09:59.213Z,43.05
2018-10-17T18:12:29.355Z,42.97
2018-10-17T18:14:59.402Z,42.69
2018-10-17T18:17:29.784Z,42.70
2018-10-17T18:19:59.613Z,41.66
2018-10-17T18:22:29.691Z,40.87
2018-10-17T18:25:00.172Z,41.38
2018-10-17T18:27:29.873Z,41.00
2018-10-17T18:29:59.448Z,40.59
2018-10-17T18:32:29.206Z,40.07
2018-10-17T18:34:59.085Z,40.23
2018-10-17T18:37:28.786Z,39.64
2018-10-17T18:39:58.432Z,39.58
2018-10-17T18:42:28.161Z,39.72
2018-10-17T18:44:58.034Z,39.26
2018-10-17T18:47:28.079Z,38.67
2018-10-17T18:49:58.350Z,38.63
2018-10-17T18:52:28.592Z,38.59
2018-10-17T18:54:58.478Z,37.24
2018-10-17T18:57:29.426Z,37.11
2018-10-17T18:59:59.201Z,37.50
2018-10-17T19:02:28.990Z,36.13
2018-10-17T19:04:58.873Z,36.18
2018-10-17T19:07:28.793Z,36.39
2018-10-17T19:09:58.859Z,35.63
2018-10-17T19:12:28.755Z,36.30
2018-10-17T19:14:59.257Z,35.78
2018-10-17T19:17:30.455Z,36.11
2018-10-17T19:20:02.783Z,35.43
2018-10-17T19:22:33.821Z,35.43
2018-10-17T19:25:06.082Z,36.21
2018-10-17T19:27:37.267Z,35.26
2018-10-17T19:30:08.809Z,34.75
2018-10-17T19:32:38.974Z,33.86
2018-10-17T19:35:10.417Z,33.98
2018-10-17T19:37:42.098Z,34.60
2018-10-17T19:40:12.408Z,33.76
2018-10-17T19:42:42.124Z,34.66
2018-10-17T19:45:12.541Z,33.95
2018-10-17T19:47:42.447Z,34.51
2018-10-17T19:50:12.162Z,34.25
2018-10-17T19:52:41.865Z,33.64
2018-10-17T19:55:12.346Z,34.24
2018-10-17T19:57:42.051Z,34.30
2018-10-17T20:00:13.991Z,34.74
2018-10-17T20:02:44.578Z,34.49
2018-10-17T20:05:14.938Z,34.62
2018-10-17T20:07:45.230Z,34.28
2018-10-17T20:10:15.631Z,33.11
2018-10-17T20:12:45.836Z,34.46
2018-10-17T20:15:15.994Z,34.05
2018-10-17T20:17:46.031Z,33.99
2018-10-17T20:20:16.142Z,34.10
2018-10-17T20:22:46.779Z,33.51
2018-10-17T20:25:16.615Z,33.98
2018-10-17T20:27:46.895Z,33.10
2018-10-17T20:30:16.875Z,33.73
2018-10-17T20:32:47.001Z,33.11
2018-10-17T20:35:16.819Z,34.03
2018-10-17T20:37:46.517Z,34.35
2018-10-17T20:40:16.507Z,34.82
2018-10-17T20:42:46.109Z,33.49
2018-10-17T20:45:15.834Z,34.65
2018-10-17T20:47:45.486Z,33.79
2018-10-17T20:50:15.524Z,34.31
2018-10-17T20:52:45.150Z,34.28
2018-10-17T20:55:14.818Z,33.61
2018-10-17T20:57:44.507Z,34.13
2018-10-17T21:00:14.437Z,34.69
2018-10-17T21:02:44.147Z,33.86
2018-10-17T21:05:13.787Z,34.46
2018-10-17T21:07:43.518Z,33.44
2018-10-17T21:10:13.167Z,33.91
2018-10-17T21:12:43.237Z,34.58
2018-10-17T21:15:12.912Z,34.76
2018-10-17T21:17:42.670Z,34.08
2018-10-17T21:20:12.319Z,35.41
2018-10-17T21:22:42.035Z,34.43
2018-10-17T21:25:11.757Z,35.16
2018-10-17T21:27:41.400Z,34.71
2018-10-17T21:30:11.430Z,35.46
2018-10-17T21:32:41.090Z,34.87
2018-10-17T21:35:10.763Z,34.83
2018-10-17T21:37:40.537Z,34.54
2018-10-17T21:40:10.506Z,35.66
2018-10-17T21:42:40.739Z,35.54
2018-10-17T21:45:10.414Z,35.42
2018-10-17T21:47:40.117Z,35.56
2018-10-17T21:50:09.906Z,35.00
2018-10-17T21:52:39.553Z,35.50
2018-10-17T21:55:09.238Z,36.44
2018-10-17T21:57:38.976Z,35.59
2018-10-17T22:00:10.046Z,36.31
2018-10-17T22:02:40.197Z,35.72
2018-10-17T22:05:10.894Z,35.54
2018-10-17T22:07:40.612Z,35.07
2018-10-17T22:10:10.494Z,35.61
2018-10-17T22:12:40.466Z,35.87
2018-10-17T22:15:10.856Z,35.50
2018-10-17T22:17:40.542Z,35.46
2018-10-17T22:20:10.315Z,35.71
2018-10-17T22:22:39.966Z,35.36
2018-10-17T22:25:09.729Z,35.65
2018-10-17T22:27:39.230Z,36.34
2018-10-17T22:30:08.937Z,36.13
2018-10-17T22:32:38.581Z,36.30
2018-10-17T22:35:08.151Z,35.25
2018-10-17T22:37:38.126Z,35.92
2018-10-17T22:40:07.630Z,36.60
2018-10-17T22:42:37.193Z,35.52
2018-10-17T22:45:07.062Z,36.78
2018-10-17T22:47:36.734Z,36.62
2018-10-17T22:50:07.313Z,35.91
2018-10-17T22:52:36.962Z,35.70
2018-10-17T22:55:06.685Z,35.74
2018-10-17T22:57:36.345Z,37.21
2018-10-17T23:00:07.402Z,36.97
2018-10-17T23:02:37.092Z,36.08
2018-10-17T23:05:06.820Z,36.80
2018-10-17T23:07:36.445Z,37.11
2018-10-17T23:10:06.144Z,37.25
2018-10-17T23:12:36.024Z,37.31
2018-10-17T23:15:09.393Z,37.09
2018-10-17T23:17:39.002Z,37.25
2018-10-17T23:20:08.735Z,37.55
2018-10-17T23:22:38.885Z,37.85
2018-10-17T23:25:09.726Z,37.24
2018-10-17T23:27:39.845Z,37.75
2018-10-17T23:30:10.514Z,37.66
2018-10-17T23:32:40.613Z,37.82
2018-10-17T23:35:10.833Z,37.03
2018-10-17T23:37:40.477Z,38.48
2018-10-17T23:40:10.374Z,37.83
2018-10-17T23:42:40.141Z,37.33
2018-10-17T23:45:09.953Z,37.81
2018-10-17T23:47:39.653Z,37.15
2018-10-17T23:50:09.483Z,38.68
2018-10-17T23:52:39.278Z,38.29
2018-10-17T23:55:09.498Z,37.47
2018-10-17T23:57:39.666Z,38.75
